createdAt,value
2018-12-05T06:24:39.586Z,94.55
2018-12-05T06:34:58.643Z,94.41
2018-12-05T06:45:24.488Z,94.37
2018-12-05T06:55:42.455Z,93.96
2018-12-05T07:06:00.594Z,93.29
2018-12-05T11:42:27.941Z,66.51
2018-12-05T11:52:46.448Z,67.28
2018-12-05T12:03:04.650Z,65.00
2018-12-05T12:13:23.534Z,60.69
2018-12-05T12:23:41.981Z,57.98
2018-12-05T12:34:01.999Z,56.73
2018-12-05T12:53:30.384Z,65.75
2018-12-05T13:03:48.903Z,55.35
2018-12-05T13:14:07.690Z,57.08
2018-12-05T13:24:26.134Z,53.33
2018-12-05T13:34:45.478Z,61.63
2018-12-05T13:45:03.713Z,64.72
2018-12-05T13:55:22.140Z,65.38
2018-12-05T14:05:41.920Z,67.50
2018-12-05T14:16:01.840Z,69.28
2018-12-05T14:26:39.516Z,70.20
2018-12-05T14:37:20.554Z,70.92
2018-12-05T14:48:04.187Z,71.26
2018-12-05T15:09:58.294Z,75.68
2018-12-05T15:20:18.019Z,76.83
2018-12-05T15:30:38.048Z,81.42
2018-12-05T15:40:56.762Z,82.47
2018-12-05T15:51:15.502Z,83.28
2018-12-05T16:01:34.503Z,84.24
2018-12-05T16:11:53.600Z,84.82
2018-12-05T16:22:13.000Z,85.26
2018-12-05T16:32:32.740Z,85.59
2018-12-05T16:42:51.588Z,85.25
2018-12-05T16:53:09.965Z,85.74
2018-12-05T17:03:29.222Z,86.45
2018-12-05T17:13:49.471Z,87.23
2018-12-05T17:24:08.753Z,87.16
2018-12-05T17:34:29.477Z,87.32
2018-12-05T17:44:50.150Z,87.51
2018-12-05T17:55:08.998Z,87.42
2018-12-05T18:05:28.695Z,87.89
2018-12-05T18:15:49.989Z,88.38
2018-12-05T18:26:11.100Z,88.65
2018-12-05T18:36:30.490Z,88.28
2018-12-05T18:46:51.243Z,88.46
2018-12-05T18:57:14.080Z,88.59
2018-12-05T19:07:33.901Z,88.71
2018-12-05T19:18:00.137Z,88.61
2018-12-05T19:28:24.017Z,88.26
2018-12-05T19:38:53.120Z,89.20
2018-12-05T19:49:17.717Z,89.20
2018-12-05T19:59:38.961Z,89.25
2018-12-05T20:10:00.568Z,88.93
2018-12-05T20:20:24.507Z,89.03
2018-12-05T20:30:45.987Z,89.22
2018-12-05T20:41:10.097Z,88.80
2018-12-05T20:51:32.988Z,88.72
2018-12-05T21:01:54.658Z,88.43
2018-12-05T21:12:14.880Z,88.63
2018-12-05T21:22:34.948Z,88.83
2018-12-05T21:32:55.062Z,88.71
2018-12-05T21:43:16.289Z,88.75
2018-12-05T21:53:35.677Z,88.74
2018-12-05T22:03:55.880Z,88.50
2018-12-05T22:14:15.107Z,88.32
2018-12-05T22:24:33.921Z,88.30
2018-12-05T22:34:52.408Z,88.39
2018-12-05T22:45:11.730Z,88.08
2018-12-05T22:55:31.065Z,87.88
2018-12-05T23:05:50.581Z,87.34
2018-12-05T23:16:09.158Z,87.57
2018-12-05T23:26:28.957Z,87.67
2018-12-05T23:36:48.657Z,87.67
2018-12-05T23:47:14.800Z,87.52
2018-12-05T23:57:33.913Z,87.37
